sensor_id;sensor_type;location;lat;lon;timestamp;P1;durP1;ratioP1;P2;durP2;ratioP2
52186;SDS011;38161;53.020;6.598;2024-02-21T00:00:50;11.85;;;3.30;;
52186;SDS011;38161;53.020;6.598;2024-02-21T00:05:42;13.52;;;3.25;;
52186;SDS011;38161;53.020;6.598;2024-02-21T00:08:08;12.05;;;2.70;;
52186;SDS011;38161;53.020;6.598;2024-02-21T00:10:34;13.87;;;3.30;;
52186;SDS011;38161;53.020;6.598;2024-02-21T00:13:00;15.25;;;3.08;;
52186;SDS011;38161;53.020;6.598;2024-02-21T00:15:26;10.43;;;2.80;;
52186;SDS011;38161;53.020;6.598;2024-02-21T00:17:52;15.88;;;3.20;;
52186;SDS011;38161;53.020;6.598;2024-02-21T00:20:18;10.18;;;3.15;;
52186;SDS011;38161;53.020;6.598;2024-02-21T00:22:44;11.68;;;3.08;;
52186;SDS011;38161;53.020;6.598;2024-02-21T00:25:10;16.63;;;3.67;;
52186;SDS011;38161;53.020;6.598;2024-02-21T00:27:36;14.23;;;3.47;;
52186;SDS011;38161;53.020;6.598;2024-02-21T00:30:02;13.85;;;3.28;;
52186;SDS011;38161;53.020;6.598;2024-02-21T00:32:29;13.20;;;3.35;;
52186;SDS011;38161;53.020;6.598;2024-02-21T00:34:55;8.25;;;3.00;;
52186;SDS011;38161;53.020;6.598;2024-02-21T00:37:20;15.07;;;3.00;;
52186;SDS011;38161;53.020;6.598;2024-02-21T00:39:46;14.98;;;3.15;;
52186;SDS011;38161;53.020;6.598;2024-02-21T00:42:12;7.77;;;3.20;;
52186;SDS011;38161;53.020;6.598;2024-02-21T00:44:37;16.52;;;3.33;;
52186;SDS011;38161;53.020;6.598;2024-02-21T00:47:03;12.60;;;2.95;;
52186;SDS011;38161;53.020;6.598;2024-02-21T00:49:29;14.98;;;3.90;;
52186;SDS011;38161;53.020;6.598;2024-02-21T00:51:55;14.37;;;3.67;;
52186;SDS011;38161;53.020;6.598;2024-02-21T00:54:21;9.10;;;3.13;;
52186;SDS011;38161;53.020;6.598;2024-02-21T00:59:13;10.65;;;3.63;;
52186;SDS011;38161;53.020;6.598;2024-02-21T01:01:39;17.15;;;3.55;;
52186;SDS011;38161;53.020;6.598;2024-02-21T01:04:08;16.17;;;3.58;;
52186;SDS011;38161;53.020;6.598;2024-02-21T01:06:36;16.58;;;5.00;;
52186;SDS011;38161;53.020;6.598;2024-02-21T01:09:02;12.25;;;3.60;;
52186;SDS011;38161;53.020;6.598;2024-02-21T01:11:29;14.50;;;3.40;;
52186;SDS011;38161;53.020;6.598;2024-02-21T01:13:55;14.73;;;3.92;;
52186;SDS011;38161;53.020;6.598;2024-02-21T01:16:20;14.20;;;3.65;;
52186;SDS011;38161;53.020;6.598;2024-02-21T01:18:46;16.47;;;3.60;;
52186;SDS011;38161;53.020;6.598;2024-02-21T01:21:12;23.27;;;4.20;;
52186;SDS011;38161;53.020;6.598;2024-02-21T01:23:38;18.43;;;4.00;;
52186;SDS011;38161;53.020;6.598;2024-02-21T01:26:03;14.68;;;3.47;;
52186;SDS011;38161;53.020;6.598;2024-02-21T01:28:30;15.32;;;3.67;;
52186;SDS011;38161;53.020;6.598;2024-02-21T01:30:56;13.30;;;3.35;;
52186;SDS011;38161;53.020;6.598;2024-02-21T01:33:22;13.80;;;3.15;;
52186;SDS011;38161;53.020;6.598;2024-02-21T01:35:48;13.35;;;3.28;;
52186;SDS011;38161;53.020;6.598;2024-02-21T01:38:15;9.68;;;4.00;;
52186;SDS011;38161;53.020;6.598;2024-02-21T01:40:40;16.77;;;3.87;;
52186;SDS011;38161;53.020;6.598;2024-02-21T01:43:16;18.83;;;3.70;;
52186;SDS011;38161;53.020;6.598;2024-02-21T01:48:12;15.82;;;3.90;;
52186;SDS011;38161;53.020;6.598;2024-02-21T01:50:38;19.17;;;4.22;;
52186;SDS011;38161;53.020;6.598;2024-02-21T01:53:04;15.43;;;3.97;;
52186;SDS011;38161;53.020;6.598;2024-02-21T01:55:30;15.63;;;4.78;;
52186;SDS011;38161;53.020;6.598;2024-02-21T01:57:56;18.38;;;4.25;;
52186;SDS011;38161;53.020;6.598;2024-02-21T02:00:22;18.10;;;4.03;;
52186;SDS011;38161;53.020;6.598;2024-02-21T02:02:49;17.10;;;4.40;;
52186;SDS011;38161;53.020;6.598;2024-02-21T02:05:15;17.70;;;4.75;;
52186;SDS011;38161;53.020;6.598;2024-02-21T02:07:43;14.88;;;4.30;;
52186;SDS011;38161;53.020;6.598;2024-02-21T02:10:09;14.23;;;4.13;;
52186;SDS011;38161;53.020;6.598;2024-02-21T02:12:35;20.45;;;4.68;;
52186;SDS011;38161;53.020;6.598;2024-02-21T02:15:02;18.13;;;5.18;;
52186;SDS011;38161;53.020;6.598;2024-02-21T02:17:31;18.83;;;4.53;;
52186;SDS011;38161;53.020;6.598;2024-02-21T02:19:57;21.60;;;4.80;;
52186;SDS011;38161;53.020;6.598;2024-02-21T02:22:27;16.37;;;4.07;;
52186;SDS011;38161;53.020;6.598;2024-02-21T02:24:57;15.32;;;4.40;;
52186;SDS011;38161;53.020;6.598;2024-02-21T02:27:23;18.30;;;4.47;;
52186;SDS011;38161;53.020;6.598;2024-02-21T02:29:49;19.13;;;5.47;;
52186;SDS011;38161;53.020;6.598;2024-02-21T02:32:15;12.63;;;4.10;;
52186;SDS011;38161;53.020;6.598;2024-02-21T02:34:41;15.27;;;4.30;;
52186;SDS011;38161;53.020;6.598;2024-02-21T02:37:07;15.38;;;4.45;;
52186;SDS011;38161;53.020;6.598;2024-02-21T02:39:33;16.10;;;4.53;;
52186;SDS011;38161;53.020;6.598;2024-02-21T02:41:59;13.75;;;4.60;;
52186;SDS011;38161;53.020;6.598;2024-02-21T02:44:25;16.73;;;5.00;;
52186;SDS011;38161;53.020;6.598;2024-02-21T02:46:50;14.10;;;5.15;;
52186;SDS011;38161;53.020;6.598;2024-02-21T02:49:16;12.30;;;4.47;;
52186;SDS011;38161;53.020;6.598;2024-02-21T02:51:42;18.73;;;5.38;;
52186;SDS011;38161;53.020;6.598;2024-02-21T02:54:11;17.85;;;4.70;;
52186;SDS011;38161;53.020;6.598;2024-02-21T02:56:37;17.75;;;5.15;;
52186;SDS011;38161;53.020;6.598;2024-02-21T02:59:03;15.32;;;4.68;;
52186;SDS011;38161;53.020;6.598;2024-02-21T03:01:28;16.05;;;4.93;;
52186;SDS011;38161;53.020;6.598;2024-02-21T03:03:58;18.35;;;5.13;;
52186;SDS011;38161;53.020;6.598;2024-02-21T03:06:24;12.83;;;5.30;;
52186;SDS011;38161;53.020;6.598;2024-02-21T03:08:49;15.05;;;4.65;;
52186;SDS011;38161;53.020;6.598;2024-02-21T03:11:19;21.45;;;5.75;;
52186;SDS011;38161;53.020;6.598;2024-02-21T03:13:46;24.00;;;6.20;;
52186;SDS011;38161;53.020;6.598;2024-02-21T03:16:12;20.98;;;5.57;;
52186;SDS011;38161;53.020;6.598;2024-02-21T03:18:37;18.23;;;5.95;;
52186;SDS011;38161;53.020;6.598;2024-02-21T03:21:03;21.13;;;5.80;;
52186;SDS011;38161;53.020;6.598;2024-02-21T03:25:56;22.15;;;6.85;;
52186;SDS011;38161;53.020;6.598;2024-02-21T03:28:22;23.63;;;6.43;;
52186;SDS011;38161;53.020;6.598;2024-02-21T03:30:48;20.73;;;6.68;;
52186;SDS011;38161;53.020;6.598;2024-02-21T03:33:13;17.58;;;6.75;;
52186;SDS011;38161;53.020;6.598;2024-02-21T03:35:39;23.50;;;7.13;;
52186;SDS011;38161;53.020;6.598;2024-02-21T03:38:05;16.80;;;6.70;;
52186;SDS011;38161;53.020;6.598;2024-02-21T03:40:31;16.50;;;6.60;;
52186;SDS011;38161;53.020;6.598;2024-02-21T03:42:56;17.52;;;6.30;;
52186;SDS011;38161;53.020;6.598;2024-02-21T03:45:22;26.85;;;8.38;;
52186;SDS011;38161;53.020;6.598;2024-02-21T03:47:48;21.38;;;7.38;;
52186;SDS011;38161;53.020;6.598;2024-02-21T03:50:14;15.68;;;6.20;;
52186;SDS011;38161;53.020;6.598;2024-02-21T03:52:40;24.20;;;7.05;;
52186;SDS011;38161;53.020;6.598;2024-02-21T03:55:06;26.65;;;7.07;;
52186;SDS011;38161;53.020;6.598;2024-02-21T03:57:32;17.38;;;6.60;;
52186;SDS011;38161;53.020;6.598;2024-02-21T03:59:58;19.63;;;6.60;;
52186;SDS011;38161;53.020;6.598;2024-02-21T04:02:24;20.80;;;7.53;;
52186;SDS011;38161;53.020;6.598;2024-02-21T04:04:49;23.33;;;7.00;;
52186;SDS011;38161;53.020;6.598;2024-02-21T04:07:15;21.63;;;6.78;;
52186;SDS011;38161;53.020;6.598;2024-02-21T04:09:41;20.10;;;7.10;;
52186;SDS011;38161;53.020;6.598;2024-02-21T04:12:08;20.80;;;6.38;;
52186;SDS011;38161;53.020;6.598;2024-02-21T04:14:34;24.67;;;7.40;;
52186;SDS011;38161;53.020;6.598;2024-02-21T04:17:01;20.80;;;7.40;;
52186;SDS011;38161;53.020;6.598;2024-02-21T04:19:27;23.15;;;7.50;;
52186;SDS011;38161;53.020;6.598;2024-02-21T04:21:52;22.20;;;7.27;;
52186;SDS011;38161;53.020;6.598;2024-02-21T04:24:18;25.63;;;8.47;;
52186;SDS011;38161;53.020;6.598;2024-02-21T04:26:44;23.70;;;7.73;;
52186;SDS011;38161;53.020;6.598;2024-02-21T04:29:10;28.27;;;8.38;;
52186;SDS011;38161;53.020;6.598;2024-02-21T04:31:36;20.17;;;7.95;;
52186;SDS011;38161;53.020;6.598;2024-02-21T04:34:01;17.77;;;6.97;;
52186;SDS011;38161;53.020;6.598;2024-02-21T04:36:28;17.02;;;6.82;;
52186;SDS011;38161;53.020;6.598;2024-02-21T04:38:53;23.83;;;7.53;;
52186;SDS011;38161;53.020;6.598;2024-02-21T04:41:19;22.23;;;7.60;;
52186;SDS011;38161;53.020;6.598;2024-02-21T04:43:46;22.55;;;7.53;;
52186;SDS011;38161;53.020;6.598;2024-02-21T04:46:13;17.60;;;6.95;;
52186;SDS011;38161;53.020;6.598;2024-02-21T04:48:39;18.55;;;6.78;;
52186;SDS011;38161;53.020;6.598;2024-02-21T04:51:04;18.67;;;6.87;;
52186;SDS011;38161;53.020;6.598;2024-02-21T04:53:30;18.58;;;7.20;;
52186;SDS011;38161;53.020;6.598;2024-02-21T04:55:56;19.35;;;7.03;;
52186;SDS011;38161;53.020;6.598;2024-02-21T04:58:22;29.77;;;6.50;;
52186;SDS011;38161;53.020;6.598;2024-02-21T05:00:48;20.38;;;7.00;;
52186;SDS011;38161;53.020;6.598;2024-02-21T05:03:14;28.08;;;7.45;;
52186;SDS011;38161;53.020;6.598;2024-02-21T05:05:39;22.03;;;7.07;;
52186;SDS011;38161;53.020;6.598;2024-02-21T05:08:05;26.50;;;7.60;;
52186;SDS011;38161;53.020;6.598;2024-02-21T05:10:31;24.75;;;7.40;;
52186;SDS011;38161;53.020;6.598;2024-02-21T05:12:57;22.45;;;7.10;;
52186;SDS011;38161;53.020;6.598;2024-02-21T05:17:49;22.40;;;7.25;;
52186;SDS011;38161;53.020;6.598;2024-02-21T05:20:15;25.70;;;7.50;;
52186;SDS011;38161;53.020;6.598;2024-02-21T05:22:40;19.73;;;6.80;;
52186;SDS011;38161;53.020;6.598;2024-02-21T05:25:07;21.63;;;7.20;;
52186;SDS011;38161;53.020;6.598;2024-02-21T05:27:33;28.65;;;8.73;;
52186;SDS011;38161;53.020;6.598;2024-02-21T05:30:00;27.60;;;8.32;;
52186;SDS011;38161;53.020;6.598;2024-02-21T05:32:26;22.45;;;8.00;;
52186;SDS011;38161;53.020;6.598;2024-02-21T05:34:52;24.75;;;8.70;;
52186;SDS011;38161;53.020;6.598;2024-02-21T05:37:17;23.48;;;8.68;;
52186;SDS011;38161;53.020;6.598;2024-02-21T05:39:43;29.83;;;9.27;;
52186;SDS011;38161;53.020;6.598;2024-02-21T05:42:09;30.25;;;9.20;;
52186;SDS011;38161;53.020;6.598;2024-02-21T05:44:35;29.53;;;8.50;;
52186;SDS011;38161;53.020;6.598;2024-02-21T05:47:00;24.87;;;8.93;;
52186;SDS011;38161;53.020;6.598;2024-02-21T05:49:26;24.23;;;9.00;;
52186;SDS011;38161;53.020;6.598;2024-02-21T05:51:52;26.67;;;8.87;;
52186;SDS011;38161;53.020;6.598;2024-02-21T05:54:18;26.77;;;9.90;;
52186;SDS011;38161;53.020;6.598;2024-02-21T05:56:44;26.10;;;9.07;;
52186;SDS011;38161;53.020;6.598;2024-02-21T05:59:11;26.02;;;9.15;;
52186;SDS011;38161;53.020;6.598;2024-02-21T06:01:36;27.30;;;9.45;;
52186;SDS011;38161;53.020;6.598;2024-02-21T06:04:02;27.38;;;9.25;;
52186;SDS011;38161;53.020;6.598;2024-02-21T06:06:29;23.52;;;9.20;;
52186;SDS011;38161;53.020;6.598;2024-02-21T06:08:55;29.65;;;9.30;;
52186;SDS011;38161;53.020;6.598;2024-02-21T06:11:22;25.52;;;8.60;;
52186;SDS011;38161;53.020;6.598;2024-02-21T06:13:48;28.00;;;9.45;;
52186;SDS011;38161;53.020;6.598;2024-02-21T06:16:14;28.48;;;10.10;;
52186;SDS011;38161;53.020;6.598;2024-02-21T06:18:39;30.48;;;11.65;;
52186;SDS011;38161;53.020;6.598;2024-02-21T06:21:05;35.70;;;11.70;;
52186;SDS011;38161;53.020;6.598;2024-02-21T06:23:31;28.58;;;9.82;;
52186;SDS011;38161;53.020;6.598;2024-02-21T06:25:57;26.67;;;10.38;;
52186;SDS011;38161;53.020;6.598;2024-02-21T06:28:23;32.03;;;11.10;;
52186;SDS011;38161;53.020;6.598;2024-02-21T06:30:48;35.93;;;11.47;;
52186;SDS011;38161;53.020;6.598;2024-02-21T06:33:14;30.13;;;11.07;;
52186;SDS011;38161;53.020;6.598;2024-02-21T06:35:40;31.70;;;11.13;;
52186;SDS011;38161;53.020;6.598;2024-02-21T06:38:07;37.17;;;10.40;;
52186;SDS011;38161;53.020;6.598;2024-02-21T06:40:33;32.37;;;10.27;;
52186;SDS011;38161;53.020;6.598;2024-02-21T06:43:04;38.10;;;10.02;;
52186;SDS011;38161;53.020;6.598;2024-02-21T06:45:30;39.15;;;9.25;;
52186;SDS011;38161;53.020;6.598;2024-02-21T06:47:56;34.40;;;8.93;;
52186;SDS011;38161;53.020;6.598;2024-02-21T06:50:22;38.55;;;9.95;;
52186;SDS011;38161;53.020;6.598;2024-02-21T06:52:47;35.78;;;9.27;;
52186;SDS011;38161;53.020;6.598;2024-02-21T06:55:13;29.90;;;9.57;;
52186;SDS011;38161;53.020;6.598;2024-02-21T06:57:39;30.73;;;9.20;;
52186;SDS011;38161;53.020;6.598;2024-02-21T07:00:06;30.88;;;9.93;;
52186;SDS011;38161;53.020;6.598;2024-02-21T07:02:33;30.10;;;8.80;;
52186;SDS011;38161;53.020;6.598;2024-02-21T07:04:59;25.50;;;8.07;;
52186;SDS011;38161;53.020;6.598;2024-02-21T07:07:25;27.83;;;8.43;;
52186;SDS011;38161;53.020;6.598;2024-02-21T07:09:51;28.63;;;8.30;;
52186;SDS011;38161;53.020;6.598;2024-02-21T07:12:18;39.72;;;9.75;;
52186;SDS011;38161;53.020;6.598;2024-02-21T07:14:44;26.88;;;8.65;;
52186;SDS011;38161;53.020;6.598;2024-02-21T07:17:10;26.30;;;7.82;;
52186;SDS011;38161;53.020;6.598;2024-02-21T07:19:36;23.23;;;7.78;;
52186;SDS011;38161;53.020;6.598;2024-02-21T07:22:01;29.27;;;8.77;;
52186;SDS011;38161;53.020;6.598;2024-02-21T07:24:28;23.35;;;8.48;;
52186;SDS011;38161;53.020;6.598;2024-02-21T07:26:53;25.15;;;7.68;;
52186;SDS011;38161;53.020;6.598;2024-02-21T07:29:21;26.65;;;7.80;;
52186;SDS011;38161;53.020;6.598;2024-02-21T07:31:48;20.83;;;7.60;;
52186;SDS011;38161;53.020;6.598;2024-02-21T07:34:14;22.75;;;7.38;;
52186;SDS011;38161;53.020;6.598;2024-02-21T07:36:40;27.33;;;7.38;;
52186;SDS011;38161;53.020;6.598;2024-02-21T07:39:07;26.98;;;7.40;;
52186;SDS011;38161;53.020;6.598;2024-02-21T07:41:33;22.73;;;6.77;;
52186;SDS011;38161;53.020;6.598;2024-02-21T07:43:59;27.63;;;8.07;;
52186;SDS011;38161;53.020;6.598;2024-02-21T07:46:25;30.02;;;7.90;;
52186;SDS011;38161;53.020;6.598;2024-02-21T07:48:51;22.33;;;7.90;;
52186;SDS011;38161;53.020;6.598;2024-02-21T07:51:17;25.55;;;7.35;;
52186;SDS011;38161;53.020;6.598;2024-02-21T07:53:43;19.52;;;7.90;;
52186;SDS011;38161;53.020;6.598;2024-02-21T07:56:13;14.82;;;6.75;;
52186;SDS011;38161;53.020;6.598;2024-02-21T07:58:43;18.70;;;6.93;;
52186;SDS011;38161;53.020;6.598;2024-02-21T08:01:09;22.23;;;7.03;;
52186;SDS011;38161;53.020;6.598;2024-02-21T08:03:35;23.10;;;7.43;;
52186;SDS011;38161;53.020;6.598;2024-02-21T08:06:02;21.75;;;7.80;;
52186;SDS011;38161;53.020;6.598;2024-02-21T08:08:28;24.17;;;7.88;;
52186;SDS011;38161;53.020;6.598;2024-02-21T08:10:55;30.15;;;8.63;;
52186;SDS011;38161;53.020;6.598;2024-02-21T08:13:20;24.00;;;10.40;;
52186;SDS011;38161;53.020;6.598;2024-02-21T08:15:46;24.13;;;10.30;;
52186;SDS011;38161;53.020;6.598;2024-02-21T08:18:12;23.05;;;10.35;;
52186;SDS011;38161;53.020;6.598;2024-02-21T08:20:38;25.07;;;11.30;;
52186;SDS011;38161;53.020;6.598;2024-02-21T08:23:03;28.77;;;11.43;;
52186;SDS011;38161;53.020;6.598;2024-02-21T08:25:29;23.80;;;11.53;;
52186;SDS011;38161;53.020;6.598;2024-02-21T08:27:57;31.60;;;13.15;;
52186;SDS011;38161;53.020;6.598;2024-02-21T08:30:23;28.42;;;12.10;;
52186;SDS011;38161;53.020;6.598;2024-02-21T08:32:49;26.17;;;12.60;;
52186;SDS011;38161;53.020;6.598;2024-02-21T08:35:15;24.30;;;12.93;;
52186;SDS011;38161;53.020;6.598;2024-02-21T08:37:43;25.80;;;12.98;;
52186;SDS011;38161;53.020;6.598;2024-02-21T08:40:12;31.25;;;13.45;;
52186;SDS011;38161;53.020;6.598;2024-02-21T08:42:41;23.95;;;12.98;;
52186;SDS011;38161;53.020;6.598;2024-02-21T08:45:07;27.45;;;13.32;;
52186;SDS011;38161;53.020;6.598;2024-02-21T08:47:33;31.60;;;14.27;;
52186;SDS011;38161;53.020;6.598;2024-02-21T08:50:01;26.08;;;13.45;;
52186;SDS011;38161;53.020;6.598;2024-02-21T08:52:27;25.10;;;13.40;;
52186;SDS011;38161;53.020;6.598;2024-02-21T08:54:53;24.60;;;12.45;;
52186;SDS011;38161;53.020;6.598;2024-02-21T08:57:19;22.98;;;12.95;;
52186;SDS011;38161;53.020;6.598;2024-02-21T08:59:45;21.88;;;13.07;;
52186;SDS011;38161;53.020;6.598;2024-02-21T09:02:12;24.75;;;13.10;;
52186;SDS011;38161;53.020;6.598;2024-02-21T09:04:38;24.17;;;13.07;;
52186;SDS011;38161;53.020;6.598;2024-02-21T09:07:04;28.88;;;13.38;;
52186;SDS011;38161;53.020;6.598;2024-02-21T09:09:30;34.37;;;13.40;;
52186;SDS011;38161;53.020;6.598;2024-02-21T09:11:58;29.25;;;14.10;;
52186;SDS011;38161;53.020;6.598;2024-02-21T09:14:30;26.15;;;13.60;;
52186;SDS011;38161;53.020;6.598;2024-02-21T09:16:57;24.42;;;13.57;;
52186;SDS011;38161;53.020;6.598;2024-02-21T09:19:23;27.77;;;13.73;;
52186;SDS011;38161;53.020;6.598;2024-02-21T09:21:49;23.58;;;13.90;;
52186;SDS011;38161;53.020;6.598;2024-02-21T09:24:14;27.80;;;15.02;;
52186;SDS011;38161;53.020;6.598;2024-02-21T09:26:40;25.15;;;13.68;;
52186;SDS011;38161;53.020;6.598;2024-02-21T09:29:06;23.58;;;14.13;;
52186;SDS011;38161;53.020;6.598;2024-02-21T09:31:33;25.75;;;15.10;;
52186;SDS011;38161;53.020;6.598;2024-02-21T09:33:58;26.13;;;14.83;;
52186;SDS011;38161;53.020;6.598;2024-02-21T09:36:24;26.20;;;14.77;;
52186;SDS011;38161;53.020;6.598;2024-02-21T09:38:50;26.95;;;16.80;;
52186;SDS011;38161;53.020;6.598;2024-02-21T09:41:16;28.90;;;15.73;;
52186;SDS011;38161;53.020;6.598;2024-02-21T09:43:43;28.65;;;17.05;;
52186;SDS011;38161;53.020;6.598;2024-02-21T09:46:16;29.55;;;17.48;;
52186;SDS011;38161;53.020;6.598;2024-02-21T09:48:51;26.88;;;16.52;;
52186;SDS011;38161;53.020;6.598;2024-02-21T09:51:34;24.80;;;15.77;;
52186;SDS011;38161;53.020;6.598;2024-02-21T09:54:03;33.95;;;16.08;;
52186;SDS011;38161;53.020;6.598;2024-02-21T09:56:29;29.90;;;16.15;;
52186;SDS011;38161;53.020;6.598;2024-02-21T09:58:55;26.40;;;15.93;;
52186;SDS011;38161;53.020;6.598;2024-02-21T10:01:22;27.85;;;17.17;;
52186;SDS011;38161;53.020;6.598;2024-02-21T10:03:48;34.20;;;18.20;;
52186;SDS011;38161;53.020;6.598;2024-02-21T10:06:14;28.27;;;17.58;;
52186;SDS011;38161;53.020;6.598;2024-02-21T10:08:40;29.70;;;17.30;;
52186;SDS011;38161;53.020;6.598;2024-02-21T10:11:06;27.53;;;17.67;;
52186;SDS011;38161;53.020;6.598;2024-02-21T10:13:34;31.75;;;18.20;;
52186;SDS011;38161;53.020;6.598;2024-02-21T10:16:06;32.63;;;17.60;;
52186;SDS011;38161;53.020;6.598;2024-02-21T10:18:33;30.92;;;18.85;;
52186;SDS011;38161;53.020;6.598;2024-02-21T10:21:03;32.28;;;17.75;;
52186;SDS011;38161;53.020;6.598;2024-02-21T10:23:44;31.17;;;18.73;;
52186;SDS011;38161;53.020;6.598;2024-02-21T10:26:10;27.20;;;17.20;;
52186;SDS011;38161;53.020;6.598;2024-02-21T10:28:37;30.63;;;19.92;;
52186;SDS011;38161;53.020;6.598;2024-02-21T10:31:07;37.00;;;21.63;;
52186;SDS011;38161;53.020;6.598;2024-02-21T10:33:34;45.30;;;30.60;;
52186;SDS011;38161;53.020;6.598;2024-02-21T10:36:09;49.78;;;34.60;;
52186;SDS011;38161;53.020;6.598;2024-02-21T10:38:39;36.20;;;24.48;;
52186;SDS011;38161;53.020;6.598;2024-02-21T10:41:05;34.30;;;18.55;;
52186;SDS011;38161;53.020;6.598;2024-02-21T10:46:06;27.05;;;17.42;;
52186;SDS011;38161;53.020;6.598;2024-02-21T10:48:42;24.55;;;15.43;;
52186;SDS011;38161;53.020;6.598;2024-02-21T10:56:30;31.77;;;17.10;;
52186;SDS011;38161;53.020;6.598;2024-02-21T10:59:09;29.42;;;15.15;;
52186;SDS011;38161;53.020;6.598;2024-02-21T11:01:35;22.77;;;15.55;;
52186;SDS011;38161;53.020;6.598;2024-02-21T11:04:01;26.58;;;15.00;;
52186;SDS011;38161;53.020;6.598;2024-02-21T11:06:29;25.52;;;15.13;;
52186;SDS011;38161;53.020;6.598;2024-02-21T11:11:41;28.33;;;15.43;;
52186;SDS011;38161;53.020;6.598;2024-02-21T11:14:08;25.52;;;15.07;;
52186;SDS011;38161;53.020;6.598;2024-02-21T11:16:40;28.15;;;13.73;;
52186;SDS011;38161;53.020;6.598;2024-02-21T11:19:08;26.45;;;14.93;;
52186;SDS011;38161;53.020;6.598;2024-02-21T11:21:50;22.25;;;13.45;;
52186;SDS011;38161;53.020;6.598;2024-02-21T11:26:52;20.45;;;12.88;;
52186;SDS011;38161;53.020;6.598;2024-02-21T11:29:22;18.17;;;12.35;;
52186;SDS011;38161;53.020;6.598;2024-02-21T11:31:50;21.83;;;12.50;;
52186;SDS011;38161;53.020;6.598;2024-02-21T11:34:19;19.08;;;11.25;;
52186;SDS011;38161;53.020;6.598;2024-02-21T11:39:22;20.27;;;11.57;;
52186;SDS011;38161;53.020;6.598;2024-02-21T11:42:00;19.33;;;11.32;;
52186;SDS011;38161;53.020;6.598;2024-02-21T11:44:27;19.48;;;11.27;;
52186;SDS011;38161;53.020;6.598;2024-02-21T11:46:52;19.77;;;10.98;;
52186;SDS011;38161;53.020;6.598;2024-02-21T11:49:18;15.60;;;10.13;;
52186;SDS011;38161;53.020;6.598;2024-02-21T11:51:44;16.63;;;10.65;;
52186;SDS011;38161;53.020;6.598;2024-02-21T11:54:10;22.77;;;10.43;;
52186;SDS011;38161;53.020;6.598;2024-02-21T11:56:38;17.67;;;9.57;;
52186;SDS011;38161;53.020;6.598;2024-02-21T11:59:04;16.90;;;9.80;;
52186;SDS011;38161;53.020;6.598;2024-02-21T12:01:31;19.42;;;10.65;;
52186;SDS011;38161;53.020;6.598;2024-02-21T12:03:57;16.83;;;9.55;;
52186;SDS011;38161;53.020;6.598;2024-02-21T12:06:23;16.00;;;9.48;;
52186;SDS011;38161;53.020;6.598;2024-02-21T12:08:49;16.00;;;9.82;;
52186;SDS011;38161;53.020;6.598;2024-02-21T12:11:18;14.23;;;8.90;;
52186;SDS011;38161;53.020;6.598;2024-02-21T12:13:46;20.80;;;9.93;;
52186;SDS011;38161;53.020;6.598;2024-02-21T12:16:14;18.63;;;9.68;;
52186;SDS011;38161;53.020;6.598;2024-02-21T12:18:42;18.42;;;9.25;;
52186;SDS011;38161;53.020;6.598;2024-02-21T12:21:09;18.40;;;9.65;;
52186;SDS011;38161;53.020;6.598;2024-02-21T12:23:37;17.52;;;10.05;;
52186;SDS011;38161;53.020;6.598;2024-02-21T12:26:03;17.15;;;9.95;;
52186;SDS011;38161;53.020;6.598;2024-02-21T12:28:30;18.45;;;10.45;;
52186;SDS011;38161;53.020;6.598;2024-02-21T12:30:55;19.33;;;10.00;;
52186;SDS011;38161;53.020;6.598;2024-02-21T12:33:21;15.98;;;9.80;;
52186;SDS011;38161;53.020;6.598;2024-02-21T12:35:47;14.15;;;8.80;;
52186;SDS011;38161;53.020;6.598;2024-02-21T12:38:14;19.40;;;9.98;;
52186;SDS011;38161;53.020;6.598;2024-02-21T12:40:40;18.58;;;10.10;;
52186;SDS011;38161;53.020;6.598;2024-02-21T12:43:06;18.95;;;9.80;;
52186;SDS011;38161;53.020;6.598;2024-02-21T12:45:31;18.13;;;9.57;;
52186;SDS011;38161;53.020;6.598;2024-02-21T12:47:59;15.65;;;9.63;;
52186;SDS011;38161;53.020;6.598;2024-02-21T12:50:25;14.70;;;8.87;;
52186;SDS011;38161;53.020;6.598;2024-02-21T12:52:50;15.88;;;8.35;;
52186;SDS011;38161;53.020;6.598;2024-02-21T12:55:16;16.70;;;9.45;;
52186;SDS011;38161;53.020;6.598;2024-02-21T12:57:42;14.40;;;8.63;;
52186;SDS011;38161;53.020;6.598;2024-02-21T13:00:08;13.70;;;7.78;;
52186;SDS011;38161;53.020;6.598;2024-02-21T13:02:36;16.40;;;8.35;;
52186;SDS011;38161;53.020;6.598;2024-02-21T13:05:02;11.13;;;7.60;;
52186;SDS011;38161;53.020;6.598;2024-02-21T13:07:28;12.38;;;7.75;;
52186;SDS011;38161;53.020;6.598;2024-02-21T13:09:56;11.82;;;6.72;;
52186;SDS011;38161;53.020;6.598;2024-02-21T13:12:22;14.38;;;7.55;;
52186;SDS011;38161;53.020;6.598;2024-02-21T13:14:48;13.57;;;7.38;;
52186;SDS011;38161;53.020;6.598;2024-02-21T13:17:14;15.25;;;7.30;;
52186;SDS011;38161;53.020;6.598;2024-02-21T13:19:41;12.63;;;7.97;;
52186;SDS011;38161;53.020;6.598;2024-02-21T13:22:07;10.80;;;6.63;;
52186;SDS011;38161;53.020;6.598;2024-02-21T13:24:33;11.02;;;7.30;;
52186;SDS011;38161;53.020;6.598;2024-02-21T13:26:59;8.98;;;6.22;;
52186;SDS011;38161;53.020;6.598;2024-02-21T13:29:24;10.32;;;5.80;;
52186;SDS011;38161;53.020;6.598;2024-02-21T13:31:50;12.48;;;6.18;;
52186;SDS011;38161;53.020;6.598;2024-02-21T13:34:16;10.00;;;6.57;;
52186;SDS011;38161;53.020;6.598;2024-02-21T13:36:42;9.55;;;6.03;;
52186;SDS011;38161;53.020;6.598;2024-02-21T13:39:08;9.27;;;6.03;;
52186;SDS011;38161;53.020;6.598;2024-02-21T13:41:37;10.23;;;6.10;;
52186;SDS011;38161;53.020;6.598;2024-02-21T13:44:03;11.40;;;6.40;;
52186;SDS011;38161;53.020;6.598;2024-02-21T13:46:29;9.23;;;5.87;;
52186;SDS011;38161;53.020;6.598;2024-02-21T13:49:02;9.30;;;6.28;;
52186;SDS011;38161;53.020;6.598;2024-02-21T13:51:30;9.60;;;5.55;;
52186;SDS011;38161;53.020;6.598;2024-02-21T13:53:56;12.05;;;6.05;;
52186;SDS011;38161;53.020;6.598;2024-02-21T13:56:22;11.68;;;6.05;;
52186;SDS011;38161;53.020;6.598;2024-02-21T13:58:47;9.25;;;5.88;;
52186;SDS011;38161;53.020;6.598;2024-02-21T14:01:13;8.63;;;5.73;;
52186;SDS011;38161;53.020;6.598;2024-02-21T14:03:39;9.73;;;5.33;;
52186;SDS011;38161;53.020;6.598;2024-02-21T14:06:04;11.30;;;5.93;;
52186;SDS011;38161;53.020;6.598;2024-02-21T14:08:30;12.40;;;6.47;;
52186;SDS011;38161;53.020;6.598;2024-02-21T14:10:56;9.63;;;6.85;;
52186;SDS011;38161;53.020;6.598;2024-02-21T14:13:24;10.60;;;6.63;;
52186;SDS011;38161;53.020;6.598;2024-02-21T14:15:50;11.55;;;6.35;;
52186;SDS011;38161;53.020;6.598;2024-02-21T14:18:15;10.13;;;6.70;;
52186;SDS011;38161;53.020;6.598;2024-02-21T14:20:42;10.97;;;6.33;;
52186;SDS011;38161;53.020;6.598;2024-02-21T14:23:08;11.52;;;6.63;;
52186;SDS011;38161;53.020;6.598;2024-02-21T14:25:34;13.18;;;6.53;;
52186;SDS011;38161;53.020;6.598;2024-02-21T14:28:00;11.00;;;6.70;;
52186;SDS011;38161;53.020;6.598;2024-02-21T14:30:26;12.05;;;7.07;;
52186;SDS011;38161;53.020;6.598;2024-02-21T14:32:51;14.88;;;7.20;;
52186;SDS011;38161;53.020;6.598;2024-02-21T14:35:17;11.23;;;6.20;;
52186;SDS011;38161;53.020;6.598;2024-02-21T14:37:44;13.27;;;6.22;;
52186;SDS011;38161;53.020;6.598;2024-02-21T14:40:11;10.20;;;6.35;;
52186;SDS011;38161;53.020;6.598;2024-02-21T14:42:37;11.85;;;6.03;;
52186;SDS011;38161;53.020;6.598;2024-02-21T14:45:03;10.65;;;6.53;;
52186;SDS011;38161;53.020;6.598;2024-02-21T14:47:32;10.02;;;6.65;;
52186;SDS011;38161;53.020;6.598;2024-02-21T14:49:58;14.38;;;6.78;;
52186;SDS011;38161;53.020;6.598;2024-02-21T14:52:24;12.52;;;6.90;;
52186;SDS011;38161;53.020;6.598;2024-02-21T14:54:52;13.55;;;7.50;;